sensor_id;sensor_type;location;lat;lon;timestamp;temperature;humidity
38183;DHT22;23991;52.430;10.586;2024-02-14T00:02:06;6.60;72.20
38183;DHT22;23991;52.430;10.586;2024-02-14T00:04:32;6.60;72.40
38183;DHT22;23991;52.430;10.586;2024-02-14T00:06:58;6.60;72.40
38183;DHT22;23991;52.430;10.586;2024-02-14T00:09:23;6.60;72.40
38183;DHT22;23991;52.430;10.586;2024-02-14T00:11:49;6.60;72.50
38183;DHT22;23991;52.430;10.586;2024-02-14T00:14:14;6.60;72.70
38183;DHT22;23991;52.430;10.586;2024-02-14T00:16:40;6.60;72.80
38183;DHT22;23991;52.430;10.586;2024-02-14T00:19:05;6.60;72.80
38183;DHT22;23991;52.430;10.586;2024-02-14T00:21:31;6.60;72.90
38183;DHT22;23991;52.430;10.586;2024-02-14T00:23:57;6.60;73.00
38183;DHT22;23991;52.430;10.586;2024-02-14T00:26:24;6.60;73.00
38183;DHT22;23991;52.430;10.586;2024-02-14T00:28:49;6.60;73.00
38183;DHT22;23991;52.430;10.586;2024-02-14T00:31:15;6.60;73.20
38183;DHT22;23991;52.430;10.586;2024-02-14T00:33:41;6.60;73.30
38183;DHT22;23991;52.430;10.586;2024-02-14T00:36:06;6.60;73.40
38183;DHT22;23991;52.430;10.586;2024-02-14T00:38:32;6.60;73.60
38183;DHT22;23991;52.430;10.586;2024-02-14T00:40:58;6.60;73.60
38183;DHT22;23991;52.430;10.586;2024-02-14T00:43:23;6.60;73.80
38183;DHT22;23991;52.430;10.586;2024-02-14T00:45:49;6.70;73.70
38183;DHT22;23991;52.430;10.586;2024-02-14T00:48:14;6.70;73.80
38183;DHT22;23991;52.430;10.586;2024-02-14T00:50:40;6.70;73.90
38183;DHT22;23991;52.430;10.586;2024-02-14T00:53:05;6.70;73.80
38183;DHT22;23991;52.430;10.586;2024-02-14T00:55:31;6.70;73.90
38183;DHT22;23991;52.430;10.586;2024-02-14T00:57:57;6.70;73.80
38183;DHT22;23991;52.430;10.586;2024-02-14T01:00:23;6.70;73.90
38183;DHT22;23991;52.430;10.586;2024-02-14T01:02:49;6.70;74.10
38183;DHT22;23991;52.430;10.586;2024-02-14T01:05:14;6.70;74.10
38183;DHT22;23991;52.430;10.586;2024-02-14T01:07:40;6.70;74.10
38183;DHT22;23991;52.430;10.586;2024-02-14T01:10:06;6.70;74.20
38183;DHT22;23991;52.430;10.586;2024-02-14T01:12:31;6.60;74.20
38183;DHT22;23991;52.430;10.586;2024-02-14T01:14:57;6.70;74.20
38183;DHT22;23991;52.430;10.586;2024-02-14T01:17:22;6.60;74.00
38183;DHT22;23991;52.430;10.586;2024-02-14T01:19:49;6.70;74.10
38183;DHT22;23991;52.430;10.586;2024-02-14T01:22:14;6.60;74.20
38183;DHT22;23991;52.430;10.586;2024-02-14T01:24:42;6.60;74.20
38183;DHT22;23991;52.430;10.586;2024-02-14T01:27:08;6.60;74.20
38183;DHT22;23991;52.430;10.586;2024-02-14T01:29:34;6.70;74.30
38183;DHT22;23991;52.430;10.586;2024-02-14T01:31:59;6.60;74.50
38183;DHT22;23991;52.430;10.586;2024-02-14T01:34:25;6.60;74.60
38183;DHT22;23991;52.430;10.586;2024-02-14T01:36:51;6.70;74.60
38183;DHT22;23991;52.430;10.586;2024-02-14T01:39:16;6.60;74.60
38183;DHT22;23991;52.430;10.586;2024-02-14T01:41:46;6.70;74.70
38183;DHT22;23991;52.430;10.586;2024-02-14T01:44:15;6.60;74.80
38183;DHT22;23991;52.430;10.586;2024-02-14T01:46:42;6.60;74.80
38183;DHT22;23991;52.430;10.586;2024-02-14T01:49:09;6.60;74.90
38183;DHT22;23991;52.430;10.586;2024-02-14T01:51:36;6.60;75.00
38183;DHT22;23991;52.430;10.586;2024-02-14T01:54:04;6.70;75.00
38183;DHT22;23991;52.430;10.586;2024-02-14T01:56:30;6.60;75.10
38183;DHT22;23991;52.430;10.586;2024-02-14T01:58:56;6.60;75.10
38183;DHT22;23991;52.430;10.586;2024-02-14T02:01:22;6.60;75.00
38183;DHT22;23991;52.430;10.586;2024-02-14T02:03:49;6.60;75.00
38183;DHT22;23991;52.430;10.586;2024-02-14T02:06:15;6.60;75.10
38183;DHT22;23991;52.430;10.586;2024-02-14T02:08:44;6.60;75.00
38183;DHT22;23991;52.430;10.586;2024-02-14T02:11:10;6.60;75.10
38183;DHT22;23991;52.430;10.586;2024-02-14T02:13:36;6.60;75.10
38183;DHT22;23991;52.430;10.586;2024-02-14T02:16:04;6.60;75.20
38183;DHT22;23991;52.430;10.586;2024-02-14T02:18:33;6.60;75.20
38183;DHT22;23991;52.430;10.586;2024-02-14T02:20:59;6.60;75.20
38183;DHT22;23991;52.430;10.586;2024-02-14T02:23:24;6.60;75.20
38183;DHT22;23991;52.430;10.586;2024-02-14T02:25:50;6.60;75.20
38183;DHT22;23991;52.430;10.586;2024-02-14T02:28:16;6.60;75.30
38183;DHT22;23991;52.430;10.586;2024-02-14T02:30:42;6.60;75.30
38183;DHT22;23991;52.430;10.586;2024-02-14T02:33:08;6.60;75.30
38183;DHT22;23991;52.430;10.586;2024-02-14T02:35:34;6.60;75.40
38183;DHT22;23991;52.430;10.586;2024-02-14T02:38:00;6.60;75.40
38183;DHT22;23991;52.430;10.586;2024-02-14T02:40:26;6.60;75.50
38183;DHT22;23991;52.430;10.586;2024-02-14T02:42:54;6.60;75.50
38183;DHT22;23991;52.430;10.586;2024-02-14T02:45:20;6.60;75.40
38183;DHT22;23991;52.430;10.586;2024-02-14T02:47:46;6.60;75.40
38183;DHT22;23991;52.430;10.586;2024-02-14T02:50:11;6.60;75.60
38183;DHT22;23991;52.430;10.586;2024-02-14T02:52:37;6.60;75.70
38183;DHT22;23991;52.430;10.586;2024-02-14T02:55:04;6.60;75.70
38183;DHT22;23991;52.430;10.586;2024-02-14T02:57:30;6.60;75.70
38183;DHT22;23991;52.430;10.586;2024-02-14T02:59:57;6.60;75.70
38183;DHT22;23991;52.430;10.586;2024-02-14T03:02:23;6.60;75.60
38183;DHT22;23991;52.430;10.586;2024-02-14T03:04:48;6.60;75.60
38183;DHT22;23991;52.430;10.586;2024-02-14T03:07:16;6.60;75.80
38183;DHT22;23991;52.430;10.586;2024-02-14T03:09:41;6.70;76.00
38183;DHT22;23991;52.430;10.586;2024-02-14T03:12:07;6.60;76.30
38183;DHT22;23991;52.430;10.586;2024-02-14T03:14:43;6.60;76.40
38183;DHT22;23991;52.430;10.586;2024-02-14T03:17:18;6.70;76.80
38183;DHT22;23991;52.430;10.586;2024-02-14T03:19:43;6.60;77.00
38183;DHT22;23991;52.430;10.586;2024-02-14T03:22:09;6.70;77.40
38183;DHT22;23991;52.430;10.586;2024-02-14T03:24:35;6.70;77.70
38183;DHT22;23991;52.430;10.586;2024-02-14T03:27:04;6.70;78.10
38183;DHT22;23991;52.430;10.586;2024-02-14T03:29:30;6.70;78.10
38183;DHT22;23991;52.430;10.586;2024-02-14T03:31:59;6.70;78.40
38183;DHT22;23991;52.430;10.586;2024-02-14T03:34:32;6.70;78.70
38183;DHT22;23991;52.430;10.586;2024-02-14T03:37:01;6.70;79.00
38183;DHT22;23991;52.430;10.586;2024-02-14T03:39:41;6.70;79.30
38183;DHT22;23991;52.430;10.586;2024-02-14T03:42:11;6.70;79.50
38183;DHT22;23991;52.430;10.586;2024-02-14T03:44:36;6.70;79.80
38183;DHT22;23991;52.430;10.586;2024-02-14T03:47:03;6.70;80.00
38183;DHT22;23991;52.430;10.586;2024-02-14T03:49:29;6.70;80.20
38183;DHT22;23991;52.430;10.586;2024-02-14T03:51:56;6.70;80.50
38183;DHT22;23991;52.430;10.586;2024-02-14T03:54:21;6.70;80.70
38183;DHT22;23991;52.430;10.586;2024-02-14T03:56:47;6.70;80.90
38183;DHT22;23991;52.430;10.586;2024-02-14T03:59:16;6.70;81.00
38183;DHT22;23991;52.430;10.586;2024-02-14T04:01:52;6.70;81.30
38183;DHT22;23991;52.430;10.586;2024-02-14T04:04:18;6.80;81.50
38183;DHT22;23991;52.430;10.586;2024-02-14T04:06:46;6.80;81.90
38183;DHT22;23991;52.430;10.586;2024-02-14T04:09:11;6.70;82.20
38183;DHT22;23991;52.430;10.586;2024-02-14T04:11:37;6.80;82.60
38183;DHT22;23991;52.430;10.586;2024-02-14T04:14:05;6.80;82.70
38183;DHT22;23991;52.430;10.586;2024-02-14T04:16:33;6.80;82.90
38183;DHT22;23991;52.430;10.586;2024-02-14T04:18:59;6.80;83.20
38183;DHT22;23991;52.430;10.586;2024-02-14T04:21:24;6.80;83.40
38183;DHT22;23991;52.430;10.586;2024-02-14T04:23:50;6.70;83.60
38183;DHT22;23991;52.430;10.586;2024-02-14T04:26:24;6.70;83.90
38183;DHT22;23991;52.430;10.586;2024-02-14T04:28:50;6.80;84.30
38183;DHT22;23991;52.430;10.586;2024-02-14T04:31:18;6.80;84.50
38183;DHT22;23991;52.430;10.586;2024-02-14T04:33:44;6.70;84.60
38183;DHT22;23991;52.430;10.586;2024-02-14T04:36:12;6.70;84.80
38183;DHT22;23991;52.430;10.586;2024-02-14T04:38:38;6.70;85.00
38183;DHT22;23991;52.430;10.586;2024-02-14T04:41:05;6.70;85.10
38183;DHT22;23991;52.430;10.586;2024-02-14T04:43:30;6.70;85.40
38183;DHT22;23991;52.430;10.586;2024-02-14T04:45:56;6.80;85.50
38183;DHT22;23991;52.430;10.586;2024-02-14T04:48:21;6.70;85.60
38183;DHT22;23991;52.430;10.586;2024-02-14T04:50:47;6.70;85.80
38183;DHT22;23991;52.430;10.586;2024-02-14T04:53:12;6.70;85.90
38183;DHT22;23991;52.430;10.586;2024-02-14T04:55:38;6.70;86.00
38183;DHT22;23991;52.430;10.586;2024-02-14T04:58:03;6.70;86.10
38183;DHT22;23991;52.430;10.586;2024-02-14T05:00:30;6.70;86.20
38183;DHT22;23991;52.430;10.586;2024-02-14T05:02:59;6.70;86.30
38183;DHT22;23991;52.430;10.586;2024-02-14T05:05:24;6.70;86.40
38183;DHT22;23991;52.430;10.586;2024-02-14T05:07:50;6.70;86.50
38183;DHT22;23991;52.430;10.586;2024-02-14T05:10:15;6.70;86.50
38183;DHT22;23991;52.430;10.586;2024-02-14T05:12:41;6.70;86.50
38183;DHT22;23991;52.430;10.586;2024-02-14T05:15:07;6.70;86.50
38183;DHT22;23991;52.430;10.586;2024-02-14T05:17:34;6.70;86.50
38183;DHT22;23991;52.430;10.586;2024-02-14T05:20:00;6.70;86.50
38183;DHT22;23991;52.430;10.586;2024-02-14T05:22:28;6.70;86.50
38183;DHT22;23991;52.430;10.586;2024-02-14T05:24:54;6.80;86.60
38183;DHT22;23991;52.430;10.586;2024-02-14T05:27:22;6.80;86.60
38183;DHT22;23991;52.430;10.586;2024-02-14T05:29:48;6.70;86.60
38183;DHT22;23991;52.430;10.586;2024-02-14T05:32:13;6.80;86.60
38183;DHT22;23991;52.430;10.586;2024-02-14T05:34:49;6.70;86.70
38183;DHT22;23991;52.430;10.586;2024-02-14T05:37:18;6.80;86.70
38183;DHT22;23991;52.430;10.586;2024-02-14T05:39:45;6.70;86.80
38183;DHT22;23991;52.430;10.586;2024-02-14T05:42:16;6.80;86.90
38183;DHT22;23991;52.430;10.586;2024-02-14T05:44:42;6.80;87.10
38183;DHT22;23991;52.430;10.586;2024-02-14T05:47:08;6.80;87.10
38183;DHT22;23991;52.430;10.586;2024-02-14T05:49:34;6.80;87.30
38183;DHT22;23991;52.430;10.586;2024-02-14T05:51:59;6.80;87.30
38183;DHT22;23991;52.430;10.586;2024-02-14T05:54:25;6.90;87.30
38183;DHT22;23991;52.430;10.586;2024-02-14T05:56:51;6.90;87.30
38183;DHT22;23991;52.430;10.586;2024-02-14T05:59:16;6.90;87.30
38183;DHT22;23991;52.430;10.586;2024-02-14T06:01:42;6.90;87.40
38183;DHT22;23991;52.430;10.586;2024-02-14T06:04:07;6.90;87.40
38183;DHT22;23991;52.430;10.586;2024-02-14T06:06:33;6.90;87.40
38183;DHT22;23991;52.430;10.586;2024-02-14T06:08:58;6.90;87.50
38183;DHT22;23991;52.430;10.586;2024-02-14T06:11:24;6.90;87.60
38183;DHT22;23991;52.430;10.586;2024-02-14T06:13:49;6.90;87.70
38183;DHT22;23991;52.430;10.586;2024-02-14T06:16:15;6.90;87.70
38183;DHT22;23991;52.430;10.586;2024-02-14T06:18:40;6.90;87.90
38183;DHT22;23991;52.430;10.586;2024-02-14T06:21:06;6.90;88.00
38183;DHT22;23991;52.430;10.586;2024-02-14T06:23:32;6.90;88.00
38183;DHT22;23991;52.430;10.586;2024-02-14T06:25:58;6.90;88.10
38183;DHT22;23991;52.430;10.586;2024-02-14T06:28:24;6.90;88.20
38183;DHT22;23991;52.430;10.586;2024-02-14T06:30:50;6.90;88.30
38183;DHT22;23991;52.430;10.586;2024-02-14T06:33:15;6.90;88.40
38183;DHT22;23991;52.430;10.586;2024-02-14T06:35:41;6.90;88.50
38183;DHT22;23991;52.430;10.586;2024-02-14T06:38:06;6.90;88.60
38183;DHT22;23991;52.430;10.586;2024-02-14T06:40:32;6.90;88.60
38183;DHT22;23991;52.430;10.586;2024-02-14T06:42:58;7.00;88.60
38183;DHT22;23991;52.430;10.586;2024-02-14T06:45:26;7.00;88.60
38183;DHT22;23991;52.430;10.586;2024-02-14T06:47:51;7.00;88.50
38183;DHT22;23991;52.430;10.586;2024-02-14T06:50:17;6.90;88.50
38183;DHT22;23991;52.430;10.586;2024-02-14T06:52:42;6.90;88.50
38183;DHT22;23991;52.430;10.586;2024-02-14T06:55:08;6.90;88.50
38183;DHT22;23991;52.430;10.586;2024-02-14T06:57:33;6.90;88.60
38183;DHT22;23991;52.430;10.586;2024-02-14T06:59:59;6.90;88.60
38183;DHT22;23991;52.430;10.586;2024-02-14T07:02:25;6.90;88.60
38183;DHT22;23991;52.430;10.586;2024-02-14T07:05:11;6.90;88.70
38183;DHT22;23991;52.430;10.586;2024-02-14T07:07:40;6.90;88.70
38183;DHT22;23991;52.430;10.586;2024-02-14T07:10:08;6.90;88.70
38183;DHT22;23991;52.430;10.586;2024-02-14T07:12:40;7.00;88.70
38183;DHT22;23991;52.430;10.586;2024-02-14T07:15:05;7.00;88.80
38183;DHT22;23991;52.430;10.586;2024-02-14T07:17:32;7.00;88.80
38183;DHT22;23991;52.430;10.586;2024-02-14T07:19:58;7.00;88.90
38183;DHT22;23991;52.430;10.586;2024-02-14T07:22:23;7.10;88.90
38183;DHT22;23991;52.430;10.586;2024-02-14T07:24:50;7.10;89.00
38183;DHT22;23991;52.430;10.586;2024-02-14T07:27:17;7.10;89.00
38183;DHT22;23991;52.430;10.586;2024-02-14T07:29:42;7.10;89.00
38183;DHT22;23991;52.430;10.586;2024-02-14T07:32:09;7.20;89.10
38183;DHT22;23991;52.430;10.586;2024-02-14T07:34:38;7.30;89.00
38183;DHT22;23991;52.430;10.586;2024-02-14T07:37:04;7.40;89.10
38183;DHT22;23991;52.430;10.586;2024-02-14T07:39:30;7.40;89.00
38183;DHT22;23991;52.430;10.586;2024-02-14T07:41:56;7.40;88.90
38183;DHT22;23991;52.430;10.586;2024-02-14T07:44:22;7.50;88.80
38183;DHT22;23991;52.430;10.586;2024-02-14T07:46:49;7.60;88.80
38183;DHT22;23991;52.430;10.586;2024-02-14T07:49:14;7.70;88.50
38183;DHT22;23991;52.430;10.586;2024-02-14T07:51:40;7.70;88.50
38183;DHT22;23991;52.430;10.586;2024-02-14T07:54:06;7.80;88.30
38183;DHT22;23991;52.430;10.586;2024-02-14T07:56:32;7.80;88.20
38183;DHT22;23991;52.430;10.586;2024-02-14T07:58:58;7.90;88.10
38183;DHT22;23991;52.430;10.586;2024-02-14T08:01:26;8.00;87.90
38183;DHT22;23991;52.430;10.586;2024-02-14T08:03:52;8.10;87.70
38183;DHT22;23991;52.430;10.586;2024-02-14T08:06:17;8.10;87.50
38183;DHT22;23991;52.430;10.586;2024-02-14T08:08:43;8.20;87.40
38183;DHT22;23991;52.430;10.586;2024-02-14T08:11:14;8.20;87.20
38183;DHT22;23991;52.430;10.586;2024-02-14T08:13:39;8.30;87.30
38183;DHT22;23991;52.430;10.586;2024-02-14T08:16:06;8.40;87.20
38183;DHT22;23991;52.430;10.586;2024-02-14T08:18:32;8.40;86.90
38183;DHT22;23991;52.430;10.586;2024-02-14T08:20:57;8.60;86.80
38183;DHT22;23991;52.430;10.586;2024-02-14T08:23:23;8.60;86.60
38183;DHT22;23991;52.430;10.586;2024-02-14T08:25:49;8.70;86.00
38183;DHT22;23991;52.430;10.586;2024-02-14T08:28:15;8.80;85.70
38183;DHT22;23991;52.430;10.586;2024-02-14T08:30:42;8.90;85.60
38183;DHT22;23991;52.430;10.586;2024-02-14T08:33:08;9.00;85.30
38183;DHT22;23991;52.430;10.586;2024-02-14T08:35:35;9.10;84.60
38183;DHT22;23991;52.430;10.586;2024-02-14T08:38:00;9.20;84.10
38183;DHT22;23991;52.430;10.586;2024-02-14T08:40:26;9.20;84.20
38183;DHT22;23991;52.430;10.586;2024-02-14T08:42:52;9.30;83.70
38183;DHT22;23991;52.430;10.586;2024-02-14T08:45:17;9.30;83.40
38183;DHT22;23991;52.430;10.586;2024-02-14T08:47:44;9.40;83.30
38183;DHT22;23991;52.430;10.586;2024-02-14T08:50:10;9.50;82.90
38183;DHT22;23991;52.430;10.586;2024-02-14T08:52:35;9.50;82.70
38183;DHT22;23991;52.430;10.586;2024-02-14T08:55:03;9.60;82.70
38183;DHT22;23991;52.430;10.586;2024-02-14T08:57:29;9.70;82.40
38183;DHT22;23991;52.430;10.586;2024-02-14T08:59:56;9.80;82.10
38183;DHT22;23991;52.430;10.586;2024-02-14T09:02:22;9.90;81.70
38183;DHT22;23991;52.430;10.586;2024-02-14T09:04:48;10.00;81.50
38183;DHT22;23991;52.430;10.586;2024-02-14T09:07:15;10.00;81.00
38183;DHT22;23991;52.430;10.586;2024-02-14T09:09:41;10.20;80.80
38183;DHT22;23991;52.430;10.586;2024-02-14T09:12:06;10.30;80.60
38183;DHT22;23991;52.430;10.586;2024-02-14T09:14:33;10.30;80.70
38183;DHT22;23991;52.430;10.586;2024-02-14T09:16:58;10.40;80.30
38183;DHT22;23991;52.430;10.586;2024-02-14T09:19:24;10.40;80.20
38183;DHT22;23991;52.430;10.586;2024-02-14T09:21:50;10.40;80.60
38183;DHT22;23991;52.430;10.586;2024-02-14T09:24:16;10.60;80.40
38183;DHT22;23991;52.430;10.586;2024-02-14T09:26:42;10.60;80.30
38183;DHT22;23991;52.430;10.586;2024-02-14T09:29:08;10.60;80.30
38183;DHT22;23991;52.430;10.586;2024-02-14T09:31:37;10.80;80.00
38183;DHT22;23991;52.430;10.586;2024-02-14T09:34:03;10.90;79.60
38183;DHT22;23991;52.430;10.586;2024-02-14T09:36:28;10.90;79.20
38183;DHT22;23991;52.430;10.586;2024-02-14T09:38:54;10.90;79.10
38183;DHT22;23991;52.430;10.586;2024-02-14T09:41:22;11.00;78.70
38183;DHT22;23991;52.430;10.586;2024-02-14T09:43:47;11.00;78.90
38183;DHT22;23991;52.430;10.586;2024-02-14T09:46:14;11.00;78.60
38183;DHT22;23991;52.430;10.586;2024-02-14T09:48:44;11.10;78.70
38183;DHT22;23991;52.430;10.586;2024-02-14T09:51:10;11.20;78.70
38183;DHT22;23991;52.430;10.586;2024-02-14T09:53:36;11.30;78.50
38183;DHT22;23991;52.430;10.586;2024-02-14T09:56:02;11.40;77.80
38183;DHT22;23991;52.430;10.586;2024-02-14T09:58:28;11.30;77.90
38183;DHT22;23991;52.430;10.586;2024-02-14T10:00:54;11.40;77.90
38183;DHT22;23991;52.430;10.586;2024-02-14T10:03:20;11.40;77.80
38183;DHT22;23991;52.430;10.586;2024-02-14T10:05:45;11.50;78.00
38183;DHT22;23991;52.430;10.586;2024-02-14T10:08:11;11.60;77.50
38183;DHT22;23991;52.430;10.586;2024-02-14T10:10:37;11.70;77.50
38183;DHT22;23991;52.430;10.586;2024-02-14T10:13:07;11.90;77.20
38183;DHT22;23991;52.430;10.586;2024-02-14T10:15:33;12.00;76.40
38183;DHT22;23991;52.430;10.586;2024-02-14T10:17:59;12.10;76.10
38183;DHT22;23991;52.430;10.586;2024-02-14T10:20:25;12.20;76.00
38183;DHT22;23991;52.430;10.586;2024-02-14T10:22:59;12.20;75.60
38183;DHT22;23991;52.430;10.586;2024-02-14T10:25:25;12.20;76.00
38183;DHT22;23991;52.430;10.586;2024-02-14T10:27:51;12.40;75.40
38183;DHT22;23991;52.430;10.586;2024-02-14T10:30:17;12.40;75.40
38183;DHT22;23991;52.430;10.586;2024-02-14T10:32:42;12.40;75.60
38183;DHT22;23991;52.430;10.586;2024-02-14T10:35:14;12.40;75.70
38183;DHT22;23991;52.430;10.586;2024-02-14T10:37:40;12.50;75.50
38183;DHT22;23991;52.430;10.586;2024-02-14T10:40:06;12.60;75.30
38183;DHT22;23991;52.430;10.586;2024-02-14T10:42:33;12.70;74.80
38183;DHT22;23991;52.430;10.586;2024-02-14T10:44:59;12.80;74.20
38183;DHT22;23991;52.430;10.586;2024-02-14T10:47:30;12.70;74.70
38183;DHT22;23991;52.430;10.586;2024-02-14T10:50:00;12.70;74.40
38183;DHT22;23991;52.430;10.586;2024-02-14T10:52:31;12.70;74.10
38183;DHT22;23991;52.430;10.586;2024-02-14T10:55:01;12.80;74.30
38183;DHT22;23991;52.430;10.586;2024-02-14T10:57:30;12.90;74.10
38183;DHT22;23991;52.430;10.586;2024-02-14T11:00:05;12.90;73.90
38183;DHT22;23991;52.430;10.586;2024-02-14T11:02:32;13.10;73.40
38183;DHT22;23991;52.430;10.586;2024-02-14T11:04:58;13.20;73.00
38183;DHT22;23991;52.430;10.586;2024-02-14T11:07:23;13.40;72.70
38183;DHT22;23991;52.430;10.586;2024-02-14T11:10:06;13.40;71.90
38183;DHT22;23991;52.430;10.586;2024-02-14T11:12:34;13.40;72.20
38183;DHT22;23991;52.430;10.586;2024-02-14T11:15:21;13.40;73.10
38183;DHT22;23991;52.430;10.586;2024-02-14T11:17:47;13.40;73.10
38183;DHT22;23991;52.430;10.586;2024-02-14T11:23:02;13.60;73.20
38183;DHT22;23991;52.430;10.586;2024-02-14T11:25:40;13.90;72.70
38183;DHT22;23991;52.430;10.586;2024-02-14T11:28:19;14.20;71.90
38183;DHT22;23991;52.430;10.586;2024-02-14T11:30:48;14.20;72.10
38183;DHT22;23991;52.430;10.586;2024-02-14T11:33:26;14.20;72.00
38183;DHT22;23991;52.430;10.586;2024-02-14T11:35:52;14.40;71.40
38183;DHT22;23991;52.430;10.586;2024-02-14T11:38:26;14.40;71.10
38183;DHT22;23991;52.430;10.586;2024-02-14T11:40:54;14.40;70.70
38183;DHT22;23991;52.430;10.586;2024-02-14T11:43:22;14.50;70.50
38183;DHT22;23991;52.430;10.586;2024-02-14T11:45:48;14.40;70.40
38183;DHT22;23991;52.430;10.586;2024-02-14T11:48:26;14.60;70.60
38183;DHT22;23991;52.430;10.586;2024-02-14T11:50:59;14.70;70.20
38183;DHT22;23991;52.430;10.586;2024-02-14T11:53:25;14.70;70.00
38183;DHT22;23991;52.430;10.586;2024-02-14T11:55:55;14.70;69.90
38183;DHT22;23991;52.430;10.586;2024-02-14T11:58:22;14.70;69.70
38183;DHT22;23991;52.430;10.586;2024-02-14T12:00:56;14.90;69.50
38183;DHT22;23991;52.430;10.586;2024-02-14T12:03:23;14.80;69.20
38183;DHT22;23991;52.430;10.586;2024-02-14T12:05:58;14.70;69.90
38183;DHT22;23991;52.430;10.586;2024-02-14T12:08:24;14.80;70.00
38183;DHT22;23991;52.430;10.586;2024-02-14T12:10:49;14.80;69.80
38183;DHT22;23991;52.430;10.586;2024-02-14T12:13:17;14.80;69.90
38183;DHT22;23991;52.430;10.586;2024-02-14T12:15:52;15.00;69.50
38183;DHT22;23991;52.430;10.586;2024-02-14T12:18:19;15.00;69.10
38183;DHT22;23991;52.430;10.586;2024-02-14T12:20:46;15.10;68.60
38183;DHT22;23991;52.430;10.586;2024-02-14T12:23:15;14.90;69.00
38183;DHT22;23991;52.430;10.586;2024-02-14T12:25:45;15.00;69.40
38183;DHT22;23991;52.430;10.586;2024-02-14T12:28:17;15.10;68.70
38183;DHT22;23991;52.430;10.586;2024-02-14T12:30:47;15.20;69.00
38183;DHT22;23991;52.430;10.586;2024-02-14T12:33:23;15.20;68.80
38183;DHT22;23991;52.430;10.586;2024-02-14T12:35:50;15.30;68.10
38183;DHT22;23991;52.430;10.586;2024-02-14T12:38:18;15.20;68.00
38183;DHT22;23991;52.430;10.586;2024-02-14T12:40:43;15.10;68.20
38183;DHT22;23991;52.430;10.586;2024-02-14T12:43:14;15.30;68.10
38183;DHT22;23991;52.430;10.586;2024-02-14T12:45:42;15.20;68.20
38183;DHT22;23991;52.430;10.586;2024-02-14T12:48:12;15.20;68.20
38183;DHT22;23991;52.430;10.586;2024-02-14T12:50:39;15.30;68.40
38183;DHT22;23991;52.430;10.586;2024-02-14T12:53:06;15.30;68.10
38183;DHT22;23991;52.430;10.586;2024-02-14T12:55:41;15.30;68.20
38183;DHT22;23991;52.430;10.586;2024-02-14T12:58:12;15.40;67.80
38183;DHT22;23991;52.430;10.586;2024-02-14T13:00:38;15.40;67.80
38183;DHT22;23991;52.430;10.586;2024-02-14T13:03:04;15.30;68.20
38183;DHT22;23991;52.430;10.586;2024-02-14T13:05:30;15.40;68.10
38183;DHT22;23991;52.430;10.586;2024-02-14T13:07:56;15.40;68.20
38183;DHT22;23991;52.430;10.586;2024-02-14T13:10:22;15.40;68.50
38183;DHT22;23991;52.430;10.586;2024-02-14T13:12:48;15.30;68.40
38183;DHT22;23991;52.430;10.586;2024-02-14T13:15:15;15.30;69.60
38183;DHT22;23991;52.430;10.586;2024-02-14T13:17:41;15.50;68.70
38183;DHT22;23991;52.430;10.586;2024-02-14T13:20:06;15.60;68.30
38183;DHT22;23991;52.430;10.586;2024-02-14T13:22:33;15.70;68.00
38183;DHT22;23991;52.430;10.586;2024-02-14T13:24:58;15.80;67.50
38183;DHT22;23991;52.430;10.586;2024-02-14T13:27:26;15.80;67.20
38183;DHT22;23991;52.430;10.586;2024-02-14T13:29:51;15.90;66.70
38183;DHT22;23991;52.430;10.586;2024-02-14T13:32:17;16.00;66.50
38183;DHT22;23991;52.430;10.586;2024-02-14T13:34:42;16.00;66.40
38183;DHT22;23991;52.430;10.586;2024-02-14T13:37:11;15.90;66.60
38183;DHT22;23991;52.430;10.586;2024-02-14T13:39:36;15.90;66.70
38183;DHT22;23991;52.430;10.586;2024-02-14T13:42:02;15.90;66.90
38183;DHT22;23991;52.430;10.586;2024-02-14T13:44:28;16.00;66.70
38183;DHT22;23991;52.430;10.586;2024-02-14T13:46:54;16.10;66.40
38183;DHT22;23991;52.430;10.586;2024-02-14T13:49:20;16.10;66.70
38183;DHT22;23991;52.430;10.586;2024-02-14T13:51:49;16.10;67.00
38183;DHT22;23991;52.430;10.586;2024-02-14T13:54:17;16.10;67.00
38183;DHT22;23991;52.430;10.586;2024-02-14T13:56:42;16.30;66.30
38183;DHT22;23991;52.430;10.586;2024-02-14T13:59:08;16.40;65.90
38183;DHT22;23991;52.430;10.586;2024-02-14T14:01:34;16.50;65.40
38183;DHT22;23991;52.430;10.586;2024-02-14T14:03:59;16.40;65.20
38183;DHT22;23991;52.430;10.586;2024-02-14T14:06:25;16.50;65.10
38183;DHT22;23991;52.430;10.586;2024-02-14T14:08:51;16.40;65.20
38183;DHT22;23991;52.430;10.586;2024-02-14T14:11:17;16.30;65.20
38183;DHT22;23991;52.430;10.586;2024-02-14T14:13:43;16.30;65.30
38183;DHT22;23991;52.430;10.586;2024-02-14T14:16:08;16.30;65.40
38183;DHT22;23991;52.430;10.586;2024-02-14T14:18:35;16.20;65.60
38183;DHT22;23991;52.430;10.586;2024-02-14T14:21:00;16.40;65.40
38183;DHT22;23991;52.430;10.586;2024-02-14T14:23:26;16.50;65.20
38183;DHT22;23991;52.430;10.586;2024-02-14T14:25:52;16.30;65.70
38183;DHT22;23991;52.430;10.586;2024-02-14T14:28:23;16.20;66.00
38183;DHT22;23991;52.430;10.586;2024-02-14T14:30:52;16.00;66.70
38183;DHT22;23991;52.430;10.586;2024-02-14T14:33:20;15.90;67.30
38183;DHT22;23991;52.430;10.586;2024-02-14T14:35:45;16.00;67.10
38183;DHT22;23991;52.430;10.586;2024-02-14T14:38:14;16.00;66.80
38183;DHT22;23991;52.430;10.586;2024-02-14T14:40:42;16.00;66.70
38183;DHT22;23991;52.430;10.586;2024-02-14T14:43:11;16.00;66.70
38183;DHT22;23991;52.430;10.586;2024-02-14T14:45:39;16.00;66.80
38183;DHT22;23991;52.430;10.586;2024-02-14T14:48:16;15.90;66.90
38183;DHT22;23991;52.430;10.586;2024-02-14T14:50:54;15.80;67.00
38183;DHT22;23991;52.430;10.586;2024-02-14T14:53:22;15.90;66.90
38183;DHT22;23991;52.430;10.586;2024-02-14T14:55:58;15.90;66.80
38183;DHT22;23991;52.430;10.586;2024-02-14T14:58:30;16.00;66.50
38183;DHT22;23991;52.430;10.586;2024-02-14T15:01:01;15.80;66.50
38183;DHT22;23991;52.430;10.586;2024-02-14T15:03:29;15.80;66.60
38183;DHT22;23991;52.430;10.586;2024-02-14T15:05:54;15.80;66.50
38183;DHT22;23991;52.430;10.586;2024-02-14T15:08:23;15.80;66.20
38183;DHT22;23991;52.430;10.586;2024-02-14T15:10:55;15.80;66.50
38183;DHT22;23991;52.430;10.586;2024-02-14T15:13:24;15.60;67.00
38183;DHT22;23991;52.430;10.586;2024-02-14T15:15:56;15.70;66.70
38183;DHT22;23991;52.430;10.586;2024-02-14T15:18:27;15.60;66.50
38183;DHT22;23991;52.430;10.586;2024-02-14T15:20:53;15.50;66.90
38183;DHT22;23991;52.430;10.586;2024-02-14T15:23:18;15.50;67.20
38183;DHT22;23991;52.430;10.586;2024-02-14T15:25:47;15.50;67.10
38183;DHT22;23991;52.430;10.586;2024-02-14T15:28:13;15.40;67.50